sensor_id;sensor_type;location;lat;lon;timestamp;temperature;humidity
72277;SHT30;61204;49.980;8.358;2022-10-28T00:01:20;12.10;98.85
72277;SHT30;61204;49.980;8.358;2022-10-28T00:07:47;12.05;98.85
72277;SHT30;61204;49.980;8.358;2022-10-28T00:10:13;12.04;98.89
72277;SHT30;61204;49.980;8.358;2022-10-28T00:12:38;11.98;98.88
72277;SHT30;61204;49.980;8.358;2022-10-28T00:15:05;11.98;98.92
72277;SHT30;61204;49.980;8.358;2022-10-28T00:17:31;11.98;98.89
72277;SHT30;61204;49.980;8.358;2022-10-28T00:19:56;11.97;98.92
72277;SHT30;61204;49.980;8.358;2022-10-28T00:22:22;11.95;99.01
72277;SHT30;61204;49.980;8.358;2022-10-28T00:24:47;11.97;99.04
72277;SHT30;61204;49.980;8.358;2022-10-28T00:27:13;11.95;99.02
72277;SHT30;61204;49.980;8.358;2022-10-28T00:29:38;11.97;99.10
72277;SHT30;61204;49.980;8.358;2022-10-28T00:32:04;11.97;99.10
72277;SHT30;61204;49.980;8.358;2022-10-28T00:34:30;11.98;99.10
72277;SHT30;61204;49.980;8.358;2022-10-28T00:36:55;12.03;99.09
72277;SHT30;61204;49.980;8.358;2022-10-28T00:39:24;12.03;99.15
72277;SHT30;61204;49.980;8.358;2022-10-28T00:41:54;12.10;99.18
72277;SHT30;61204;49.980;8.358;2022-10-28T00:52:57;12.17;99.16
72277;SHT30;61204;49.980;8.358;2022-10-28T00:55:28;12.21;99.22
72277;SHT30;61204;49.980;8.358;2022-10-28T00:57:58;12.25;99.20
72277;SHT30;61204;49.980;8.358;2022-10-28T01:00:25;12.28;99.19
72277;SHT30;61204;49.980;8.358;2022-10-28T01:02:51;12.32;99.23
72277;SHT30;61204;49.980;8.358;2022-10-28T01:05:24;12.39;99.47
72277;SHT30;61204;49.980;8.358;2022-10-28T01:07:58;12.44;99.39
72277;SHT30;61204;49.980;8.358;2022-10-28T01:15:02;12.62;99.64
72277;SHT30;61204;49.980;8.358;2022-10-28T01:24:18;12.49;99.40
72277;SHT30;61204;49.980;8.358;2022-10-28T01:30:51;12.42;99.34
72277;SHT30;61204;49.980;8.358;2022-10-28T01:37:11;12.45;99.43
72277;SHT30;61204;49.980;8.358;2022-10-28T01:40:09;12.46;99.44
72277;SHT30;61204;49.980;8.358;2022-10-28T01:45:59;12.53;99.48
72277;SHT30;61204;49.980;8.358;2022-10-28T01:51:45;12.56;99.47
72277;SHT30;61204;49.980;8.358;2022-10-28T01:54:20;12.70;99.73
72277;SHT30;61204;49.980;8.358;2022-10-28T01:56:51;12.84;99.58
72277;SHT30;61204;49.980;8.358;2022-10-28T01:59:23;12.89;99.47
72277;SHT30;61204;49.980;8.358;2022-10-28T02:01:53;12.84;99.36
72277;SHT30;61204;49.980;8.358;2022-10-28T02:04:20;12.82;99.16
72277;SHT30;61204;49.980;8.358;2022-10-28T02:06:51;12.73;99.13
72277;SHT30;61204;49.980;8.358;2022-10-28T02:12:27;12.73;99.06
72277;SHT30;61204;49.980;8.358;2022-10-28T02:18:33;12.72;99.07
72277;SHT30;61204;49.980;8.358;2022-10-28T02:24:48;12.72;99.12
72277;SHT30;61204;49.980;8.358;2022-10-28T02:27:51;12.77;99.28
72277;SHT30;61204;49.980;8.358;2022-10-28T02:30:31;12.79;99.28
72277;SHT30;61204;49.980;8.358;2022-10-28T02:33:10;12.83;99.31
72277;SHT30;61204;49.980;8.358;2022-10-28T02:35:49;12.83;99.22
72277;SHT30;61204;49.980;8.358;2022-10-28T02:38:27;12.83;99.24
72277;SHT30;61204;49.980;8.358;2022-10-28T02:41:05;12.82;99.18
72277;SHT30;61204;49.980;8.358;2022-10-28T02:43:42;12.79;99.22
72277;SHT30;61204;49.980;8.358;2022-10-28T02:46:12;12.82;99.18
72277;SHT30;61204;49.980;8.358;2022-10-28T02:48:46;12.80;99.14
72277;SHT30;61204;49.980;8.358;2022-10-28T02:51:38;12.82;99.24
72277;SHT30;61204;49.980;8.358;2022-10-28T02:54:35;12.82;99.22
72277;SHT30;61204;49.980;8.358;2022-10-28T02:57:16;12.80;99.22
72277;SHT30;61204;49.980;8.358;2022-10-28T02:59:57;12.84;99.27
72277;SHT30;61204;49.980;8.358;2022-10-28T03:02:25;12.84;99.25
72277;SHT30;61204;49.980;8.358;2022-10-28T03:04:52;12.86;99.25
72277;SHT30;61204;49.980;8.358;2022-10-28T03:07:18;12.83;99.24
72277;SHT30;61204;49.980;8.358;2022-10-28T03:09:45;12.84;99.22
72277;SHT30;61204;49.980;8.358;2022-10-28T03:12:10;12.84;99.23
72277;SHT30;61204;49.980;8.358;2022-10-28T03:14:36;12.89;99.25
72277;SHT30;61204;49.980;8.358;2022-10-28T03:17:02;12.93;99.38
72277;SHT30;61204;49.980;8.358;2022-10-28T03:19:28;13.03;99.33
72277;SHT30;61204;49.980;8.358;2022-10-28T03:21:54;13.01;99.26
72277;SHT30;61204;49.980;8.358;2022-10-28T03:24:19;13.11;99.33
72277;SHT30;61204;49.980;8.358;2022-10-28T03:26:45;13.10;99.29
72277;SHT30;61204;49.980;8.358;2022-10-28T03:29:11;13.11;99.27
72277;SHT30;61204;49.980;8.358;2022-10-28T03:31:36;13.15;99.26
72277;SHT30;61204;49.980;8.358;2022-10-28T03:34:02;13.14;99.23
72277;SHT30;61204;49.980;8.358;2022-10-28T03:36:27;13.14;99.21
72277;SHT30;61204;49.980;8.358;2022-10-28T03:38:53;13.14;99.20
72277;SHT30;61204;49.980;8.358;2022-10-28T03:41:19;13.15;99.12
72277;SHT30;61204;49.980;8.358;2022-10-28T03:43:44;13.06;98.87
72277;SHT30;61204;49.980;8.358;2022-10-28T03:46:10;13.03;98.96
72277;SHT30;61204;49.980;8.358;2022-10-28T03:48:36;13.01;98.98
72277;SHT30;61204;49.980;8.358;2022-10-28T03:51:01;13.01;98.96
72277;SHT30;61204;49.980;8.358;2022-10-28T03:53:27;12.97;98.96
72277;SHT30;61204;49.980;8.358;2022-10-28T03:55:54;13.00;98.94
72277;SHT30;61204;49.980;8.358;2022-10-28T03:58:22;12.94;98.95
72277;SHT30;61204;49.980;8.358;2022-10-28T04:00:50;12.93;99.05
72277;SHT30;61204;49.980;8.358;2022-10-28T04:03:18;12.92;99.10
72277;SHT30;61204;49.980;8.358;2022-10-28T04:05:45;12.93;99.19
72277;SHT30;61204;49.980;8.358;2022-10-28T04:08:16;12.94;99.13
72277;SHT30;61204;49.980;8.358;2022-10-28T04:10:43;12.93;99.22
72277;SHT30;61204;49.980;8.358;2022-10-28T04:13:10;12.94;99.24
72277;SHT30;61204;49.980;8.358;2022-10-28T04:15:36;12.90;99.25
72277;SHT30;61204;49.980;8.358;2022-10-28T04:18:02;12.94;99.27
72277;SHT30;61204;49.980;8.358;2022-10-28T04:20:29;12.93;99.29
72277;SHT30;61204;49.980;8.358;2022-10-28T04:22:55;12.94;99.37
72277;SHT30;61204;49.980;8.358;2022-10-28T04:25:22;12.93;99.34
72277;SHT30;61204;49.980;8.358;2022-10-28T04:27:51;12.94;99.40
72277;SHT30;61204;49.980;8.358;2022-10-28T04:30:17;12.90;99.42
72277;SHT30;61204;49.980;8.358;2022-10-28T04:32:43;12.89;99.44
72277;SHT30;61204;49.980;8.358;2022-10-28T04:35:10;12.89;99.45
72277;SHT30;61204;49.980;8.358;2022-10-28T04:37:38;12.86;99.44
72277;SHT30;61204;49.980;8.358;2022-10-28T04:40:07;12.86;99.44
72277;SHT30;61204;49.980;8.358;2022-10-28T04:42:33;12.86;99.54
72277;SHT30;61204;49.980;8.358;2022-10-28T04:44:59;12.86;99.64
72277;SHT30;61204;49.980;8.358;2022-10-28T04:47:25;12.89;99.70
72277;SHT30;61204;49.980;8.358;2022-10-28T04:49:50;12.82;99.61
72277;SHT30;61204;49.980;8.358;2022-10-28T04:52:16;12.82;99.70
72277;SHT30;61204;49.980;8.358;2022-10-28T04:54:41;12.84;99.85
72277;SHT30;61204;49.980;8.358;2022-10-28T04:57:07;12.82;99.84
72277;SHT30;61204;49.980;8.358;2022-10-28T04:59:33;12.89;99.99
72277;SHT30;61204;49.980;8.358;2022-10-28T05:01:58;12.83;99.87
72277;SHT30;61204;49.980;8.358;2022-10-28T05:04:24;12.75;99.85
72277;SHT30;61204;49.980;8.358;2022-10-28T05:06:50;12.70;99.85
72277;SHT30;61204;49.980;8.358;2022-10-28T05:09:15;12.66;99.85
72277;SHT30;61204;49.980;8.358;2022-10-28T05:11:41;12.63;99.89
72277;SHT30;61204;49.980;8.358;2022-10-28T05:14:06;12.55;99.85
72277;SHT30;61204;49.980;8.358;2022-10-28T05:16:32;12.55;99.90
72277;SHT30;61204;49.980;8.358;2022-10-28T05:18:57;12.50;99.87
72277;SHT30;61204;49.980;8.358;2022-10-28T05:21:23;12.46;99.90
72277;SHT30;61204;49.980;8.358;2022-10-28T05:23:49;12.45;99.91
72277;SHT30;61204;49.980;8.358;2022-10-28T05:26:15;12.42;99.92
72277;SHT30;61204;49.980;8.358;2022-10-28T05:28:41;12.35;99.93
72277;SHT30;61204;49.980;8.358;2022-10-28T05:31:08;12.31;99.92
72277;SHT30;61204;49.980;8.358;2022-10-28T05:33:34;12.24;99.90
72277;SHT30;61204;49.980;8.358;2022-10-28T05:36:00;12.21;99.95
72277;SHT30;61204;49.980;8.358;2022-10-28T05:38:26;12.14;99.93
72277;SHT30;61204;49.980;8.358;2022-10-28T05:40:52;12.14;99.98
72277;SHT30;61204;49.980;8.358;2022-10-28T05:43:18;12.16;99.99
72277;SHT30;61204;49.980;8.358;2022-10-28T05:45:43;12.13;99.99
72277;SHT30;61204;49.980;8.358;2022-10-28T05:48:16;12.10;99.99
72277;SHT30;61204;49.980;8.358;2022-10-28T05:50:41;12.13;99.99
72277;SHT30;61204;49.980;8.358;2022-10-28T05:53:07;12.13;99.99
72277;SHT30;61204;49.980;8.358;2022-10-28T05:55:33;12.17;99.99
72277;SHT30;61204;49.980;8.358;2022-10-28T05:57:59;12.16;99.99
72277;SHT30;61204;49.980;8.358;2022-10-28T06:00:25;12.16;99.99
72277;SHT30;61204;49.980;8.358;2022-10-28T06:02:51;12.18;99.99
72277;SHT30;61204;49.980;8.358;2022-10-28T06:05:17;12.21;99.99
72277;SHT30;61204;49.980;8.358;2022-10-28T06:07:42;12.31;99.99
72277;SHT30;61204;49.980;8.358;2022-10-28T06:10:09;12.44;99.99
72277;SHT30;61204;49.980;8.358;2022-10-28T06:12:36;12.42;99.99
72277;SHT30;61204;49.980;8.358;2022-10-28T06:15:03;12.42;99.99
72277;SHT30;61204;49.980;8.358;2022-10-28T06:17:30;12.38;99.99
72277;SHT30;61204;49.980;8.358;2022-10-28T06:19:55;12.38;99.99
72277;SHT30;61204;49.980;8.358;2022-10-28T06:22:21;12.38;99.99
72277;SHT30;61204;49.980;8.358;2022-10-28T06:24:47;12.38;99.99
72277;SHT30;61204;49.980;8.358;2022-10-28T06:27:12;12.42;99.99
72277;SHT30;61204;49.980;8.358;2022-10-28T06:29:38;12.42;99.99
72277;SHT30;61204;49.980;8.358;2022-10-28T06:32:04;12.44;99.99
72277;SHT30;61204;49.980;8.358;2022-10-28T06:34:34;12.48;99.99
72277;SHT30;61204;49.980;8.358;2022-10-28T06:36:59;12.53;99.99
72277;SHT30;61204;49.980;8.358;2022-10-28T06:39:25;12.55;99.99
72277;SHT30;61204;49.980;8.358;2022-10-28T06:41:50;12.59;99.99
72277;SHT30;61204;49.980;8.358;2022-10-28T06:44:16;12.59;99.99
72277;SHT30;61204;49.980;8.358;2022-10-28T06:46:41;12.62;99.99
72277;SHT30;61204;49.980;8.358;2022-10-28T06:49:07;12.70;99.99
72277;SHT30;61204;49.980;8.358;2022-10-28T06:51:33;12.73;99.99
72277;SHT30;61204;49.980;8.358;2022-10-28T06:53:58;12.70;99.99
72277;SHT30;61204;49.980;8.358;2022-10-28T06:56:24;12.72;99.99
72277;SHT30;61204;49.980;8.358;2022-10-28T06:58:52;12.72;99.99
72277;SHT30;61204;49.980;8.358;2022-10-28T07:01:20;12.77;99.99
72277;SHT30;61204;49.980;8.358;2022-10-28T07:03:47;12.82;99.99
72277;SHT30;61204;49.980;8.358;2022-10-28T07:06:15;12.86;99.99
72277;SHT30;61204;49.980;8.358;2022-10-28T07:08:40;12.90;99.99
72277;SHT30;61204;49.980;8.358;2022-10-28T07:11:07;12.96;99.99
72277;SHT30;61204;49.980;8.358;2022-10-28T07:13:33;12.99;99.99
72277;SHT30;61204;49.980;8.358;2022-10-28T07:16:00;13.07;99.99
72277;SHT30;61204;49.980;8.358;2022-10-28T07:18:28;13.11;99.99
72277;SHT30;61204;49.980;8.358;2022-10-28T07:20:58;13.15;99.99
72277;SHT30;61204;49.980;8.358;2022-10-28T07:23:24;13.24;99.99
72277;SHT30;61204;49.980;8.358;2022-10-28T07:25:52;13.28;99.99
72277;SHT30;61204;49.980;8.358;2022-10-28T07:28:22;13.37;99.99
72277;SHT30;61204;49.980;8.358;2022-10-28T07:30:49;13.44;99.99
72277;SHT30;61204;49.980;8.358;2022-10-28T07:33:14;13.52;99.99
72277;SHT30;61204;49.980;8.358;2022-10-28T07:35:40;13.62;99.99
72277;SHT30;61204;49.980;8.358;2022-10-28T07:38:07;13.65;99.99
72277;SHT30;61204;49.980;8.358;2022-10-28T07:40:33;13.76;99.99
72277;SHT30;61204;49.980;8.358;2022-10-28T07:42:58;13.91;99.99
72277;SHT30;61204;49.980;8.358;2022-10-28T07:45:24;13.96;99.99
72277;SHT30;61204;49.980;8.358;2022-10-28T07:47:50;14.04;99.99
72277;SHT30;61204;49.980;8.358;2022-10-28T07:50:16;14.10;99.86
72277;SHT30;61204;49.980;8.358;2022-10-28T07:52:42;14.20;99.76
72277;SHT30;61204;49.980;8.358;2022-10-28T07:55:10;14.29;99.62
72277;SHT30;61204;49.980;8.358;2022-10-28T07:57:36;14.34;99.34
72277;SHT30;61204;49.980;8.358;2022-10-28T08:00:05;14.31;98.67
72277;SHT30;61204;49.980;8.358;2022-10-28T08:02:31;14.42;98.64
72277;SHT30;61204;49.980;8.358;2022-10-28T08:04:57;14.69;98.40
72277;SHT30;61204;49.980;8.358;2022-10-28T08:07:24;14.79;97.97
72277;SHT30;61204;49.980;8.358;2022-10-28T08:09:51;14.84;97.59
72277;SHT30;61204;49.980;8.358;2022-10-28T08:12:17;14.89;96.84
72277;SHT30;61204;49.980;8.358;2022-10-28T08:14:43;14.89;95.92
72277;SHT30;61204;49.980;8.358;2022-10-28T08:17:09;14.89;95.50
72277;SHT30;61204;49.980;8.358;2022-10-28T08:19:35;14.93;94.93
72277;SHT30;61204;49.980;8.358;2022-10-28T08:22:00;14.99;94.92
72277;SHT30;61204;49.980;8.358;2022-10-28T08:24:27;15.01;94.63
72277;SHT30;61204;49.980;8.358;2022-10-28T08:26:52;15.11;94.72
72277;SHT30;61204;49.980;8.358;2022-10-28T08:29:18;15.16;94.50
72277;SHT30;61204;49.980;8.358;2022-10-28T08:31:43;15.27;94.45
72277;SHT30;61204;49.980;8.358;2022-10-28T08:34:09;15.26;93.15
72277;SHT30;61204;49.980;8.358;2022-10-28T08:36:35;15.30;93.78
72277;SHT30;61204;49.980;8.358;2022-10-28T08:39:01;15.48;93.92
72277;SHT30;61204;49.980;8.358;2022-10-28T08:44:49;15.72;92.78
72277;SHT30;61204;49.980;8.358;2022-10-28T08:53:56;16.48;90.07
72277;SHT30;61204;49.980;8.358;2022-10-28T08:56:34;16.73;90.85
72277;SHT30;61204;49.980;8.358;2022-10-28T08:59:24;16.91;88.18
72277;SHT30;61204;49.980;8.358;2022-10-28T09:02:02;17.18;86.33
72277;SHT30;61204;49.980;8.358;2022-10-28T09:04:39;17.34;85.00
72277;SHT30;61204;49.980;8.358;2022-10-28T09:07:16;17.96;84.01
72277;SHT30;61204;49.980;8.358;2022-10-28T09:09:46;18.08;81.38
72277;SHT30;61204;49.980;8.358;2022-10-28T09:15:21;19.35;78.67
72277;SHT30;61204;49.980;8.358;2022-10-28T09:18:17;19.94;74.74
72277;SHT30;61204;49.980;8.358;2022-10-28T09:21:02;20.31;73.80
72277;SHT30;61204;49.980;8.358;2022-10-28T09:23:51;20.90;70.99
72277;SHT30;61204;49.980;8.358;2022-10-28T09:33:15;21.48;69.00
72277;SHT30;61204;49.980;8.358;2022-10-28T09:36:04;21.95;66.27
72277;SHT30;61204;49.980;8.358;2022-10-28T09:38:38;21.10;68.05
72277;SHT30;61204;49.980;8.358;2022-10-28T09:41:18;21.02;67.88
72277;SHT30;61204;49.980;8.358;2022-10-28T09:46:40;22.16;66.22
72277;SHT30;61204;49.980;8.358;2022-10-28T09:49:20;22.51;64.60
72277;SHT30;61204;49.980;8.358;2022-10-28T09:52:00;22.25;64.39
72277;SHT30;61204;49.980;8.358;2022-10-28T09:54:36;22.69;63.47
72277;SHT30;61204;49.980;8.358;2022-10-28T09:57:06;23.23;63.00
72277;SHT30;61204;49.980;8.358;2022-10-28T09:59:33;23.79;61.02
72277;SHT30;61204;49.980;8.358;2022-10-28T10:01:59;23.75;59.64
72277;SHT30;61204;49.980;8.358;2022-10-28T10:04:27;24.21;59.69
72277;SHT30;61204;49.980;8.358;2022-10-28T10:07:10;24.75;57.99
72277;SHT30;61204;49.980;8.358;2022-10-28T10:09:43;24.67;58.03
72277;SHT30;61204;49.980;8.358;2022-10-28T10:12:11;25.03;57.29
72277;SHT30;61204;49.980;8.358;2022-10-28T10:14:49;25.20;56.99
72277;SHT30;61204;49.980;8.358;2022-10-28T10:17:24;25.43;55.29
72277;SHT30;61204;49.980;8.358;2022-10-28T10:20:00;25.38;56.13
72277;SHT30;61204;49.980;8.358;2022-10-28T10:22:36;25.61;55.14
72277;SHT30;61204;49.980;8.358;2022-10-28T10:27:51;26.57;53.30
72277;SHT30;61204;49.980;8.358;2022-10-28T10:30:33;26.23;53.17
72277;SHT30;61204;49.980;8.358;2022-10-28T10:33:04;26.64;52.49
72277;SHT30;61204;49.980;8.358;2022-10-28T10:35:34;26.87;52.56
72277;SHT30;61204;49.980;8.358;2022-10-28T10:38:04;26.10;53.31
72277;SHT30;61204;49.980;8.358;2022-10-28T10:40:47;27.37;50.59
72277;SHT30;61204;49.980;8.358;2022-10-28T10:46:14;26.92;51.71
72277;SHT30;61204;49.980;8.358;2022-10-28T10:48:43;26.77;51.23
72277;SHT30;61204;49.980;8.358;2022-10-28T10:51:24;27.40;50.37
72277;SHT30;61204;49.980;8.358;2022-10-28T10:53:57;28.12;49.31
72277;SHT30;61204;49.980;8.358;2022-10-28T10:56:34;27.98;48.35
72277;SHT30;61204;49.980;8.358;2022-10-28T10:59:04;26.72;50.93
72277;SHT30;61204;49.980;8.358;2022-10-28T11:01:40;27.26;50.15
72277;SHT30;61204;49.980;8.358;2022-10-28T11:04:07;26.95;50.74
72277;SHT30;61204;49.980;8.358;2022-10-28T11:06:48;27.20;50.61
72277;SHT30;61204;49.980;8.358;2022-10-28T11:09:31;27.47;50.19
72277;SHT30;61204;49.980;8.358;2022-10-28T11:12:00;27.98;47.98
72277;SHT30;61204;49.980;8.358;2022-10-28T11:14:29;27.40;49.00
72277;SHT30;61204;49.980;8.358;2022-10-28T11:16:59;27.57;48.77
72277;SHT30;61204;49.980;8.358;2022-10-28T11:25:34;28.12;47.43
72277;SHT30;61204;49.980;8.358;2022-10-28T11:34:22;27.26;50.82
72277;SHT30;61204;49.980;8.358;2022-10-28T11:43:30;28.19;47.70
72277;SHT30;61204;49.980;8.358;2022-10-28T11:58:37;26.00;52.77
72277;SHT30;61204;49.980;8.358;2022-10-28T12:04:02;25.51;54.16
72277;SHT30;61204;49.980;8.358;2022-10-28T12:10:40;26.33;52.13
72277;SHT30;61204;49.980;8.358;2022-10-28T12:19:02;26.80;51.08
72277;SHT30;61204;49.980;8.358;2022-10-28T12:21:57;27.10;51.70
72277;SHT30;61204;49.980;8.358;2022-10-28T12:24:34;27.17;50.17
72277;SHT30;61204;49.980;8.358;2022-10-28T12:27:17;27.15;50.73
72277;SHT30;61204;49.980;8.358;2022-10-28T12:29:53;27.09;50.40
72277;SHT30;61204;49.980;8.358;2022-10-28T12:32:31;27.55;49.79
72277;SHT30;61204;49.980;8.358;2022-10-28T12:35:25;27.80;50.04
72277;SHT30;61204;49.980;8.358;2022-10-28T12:38:17;27.58;49.82
72277;SHT30;61204;49.980;8.358;2022-10-28T12:40:54;27.72;49.44
72277;SHT30;61204;49.980;8.358;2022-10-28T12:43:39;27.94;48.97
72277;SHT30;61204;49.980;8.358;2022-10-28T12:57:40;28.19;48.97
72277;SHT30;61204;49.980;8.358;2022-10-28T13:00:31;27.65;48.77
72277;SHT30;61204;49.980;8.358;2022-10-28T13:03:11;27.39;49.45
72277;SHT30;61204;49.980;8.358;2022-10-28T13:05:46;26.88;52.11
72277;SHT30;61204;49.980;8.358;2022-10-28T13:08:54;26.41;52.98
72277;SHT30;61204;49.980;8.358;2022-10-28T13:28:01;27.57;49.14
72277;SHT30;61204;49.980;8.358;2022-10-28T13:30:29;27.53;50.00
72277;SHT30;61204;49.980;8.358;2022-10-28T13:33:17;27.36;49.45
72277;SHT30;61204;49.980;8.358;2022-10-28T13:35:48;27.22;50.80
72277;SHT30;61204;49.980;8.358;2022-10-28T13:38:22;27.36;50.66
72277;SHT30;61204;49.980;8.358;2022-10-28T13:41:45;27.26;51.41
72277;SHT30;61204;49.980;8.358;2022-10-28T13:44:23;26.80;51.36
72277;SHT30;61204;49.980;8.358;2022-10-28T13:52:38;27.82;50.96
72277;SHT30;61204;49.980;8.358;2022-10-28T13:57:58;28.51;48.21
72277;SHT30;61204;49.980;8.358;2022-10-28T14:03:05;28.16;48.67
72277;SHT30;61204;49.980;8.358;2022-10-28T14:05:48;28.06;49.71
72277;SHT30;61204;49.980;8.358;2022-10-28T14:11:06;27.87;49.89
72277;SHT30;61204;49.980;8.358;2022-10-28T14:13:48;27.53;50.87
72277;SHT30;61204;49.980;8.358;2022-10-28T14:16:36;27.03;51.83
72277;SHT30;61204;49.980;8.358;2022-10-28T14:21:57;26.71;52.34
72277;SHT30;61204;49.980;8.358;2022-10-28T14:50:45;24.60;60.03
72277;SHT30;61204;49.980;8.358;2022-10-28T14:53:32;24.48;60.04
72277;SHT30;61204;49.980;8.358;2022-10-28T14:56:06;24.24;60.49
72277;SHT30;61204;49.980;8.358;2022-10-28T14:58:39;23.93;61.48
72277;SHT30;61204;49.980;8.358;2022-10-28T15:03:59;23.50;63.19
72277;SHT30;61204;49.980;8.358;2022-10-28T15:06:35;23.38;63.29
72277;SHT30;61204;49.980;8.358;2022-10-28T15:12:07;23.23;64.02
72277;SHT30;61204;49.980;8.358;2022-10-28T15:14:48;23.16;64.15
72277;SHT30;61204;49.980;8.358;2022-10-28T15:17:21;23.13;64.25
72277;SHT30;61204;49.980;8.358;2022-10-28T15:19:57;22.98;64.80
72277;SHT30;61204;49.980;8.358;2022-10-28T15:22:27;22.65;65.80
72277;SHT30;61204;49.980;8.358;2022-10-28T15:25:11;22.59;66.01
72277;SHT30;61204;49.980;8.358;2022-10-28T15:27:41;22.48;66.38
72277;SHT30;61204;49.980;8.358;2022-10-28T15:30:24;22.47;66.46
72277;SHT30;61204;49.980;8.358;2022-10-28T15:33:18;22.29;66.97
72277;SHT30;61204;49.980;8.358;2022-10-28T15:35:46;22.17;67.39
72277;SHT30;61204;49.980;8.358;2022-10-28T15:40:53;22.03;67.76
72277;SHT30;61204;49.980;8.358;2022-10-28T15:43:27;21.92;68.08
72277;SHT30;61204;49.980;8.358;2022-10-28T15:46:10;21.71;68.67
72277;SHT30;61204;49.980;8.358;2022-10-28T15:48:40;21.57;69.33
72277;SHT30;61204;49.980;8.358;2022-10-28T15:51:15;21.37;70.08
72277;SHT30;61204;49.980;8.358;2022-10-28T15:53:53;21.08;71.64
72277;SHT30;61204;49.980;8.358;2022-10-28T15:56:53;20.90;72.51
72277;SHT30;61204;49.980;8.358;2022-10-28T15:59:23;20.69;73.08
72277;SHT30;61204;49.980;8.358;2022-10-28T16:01:50;20.61;73.32
72277;SHT30;61204;49.980;8.358;2022-10-28T16:07:06;20.38;73.86
72277;SHT30;61204;49.980;8.358;2022-10-28T16:09:44;20.31;74.11
72277;SHT30;61204;49.980;8.358;2022-10-28T16:12:19;20.24;74.49
72277;SHT30;61204;49.980;8.358;2022-10-28T16:14:56;20.13;74.80
72277;SHT30;61204;49.980;8.358;2022-10-28T16:17:35;20.04;75.20
72277;SHT30;61204;49.980;8.358;2022-10-28T16:20:13;19.98;75.42
72277;SHT30;61204;49.980;8.358;2022-10-28T16:22:43;19.97;74.74
72277;SHT30;61204;49.980;8.358;2022-10-28T16:25:19;19.97;74.73
72277;SHT30;61204;49.980;8.358;2022-10-28T16:27:48;19.96;74.87
72277;SHT30;61204;49.980;8.358;2022-10-28T16:30:15;19.83;75.15
72277;SHT30;61204;49.980;8.358;2022-10-28T16:32:44;19.78;75.46
72277;SHT30;61204;49.980;8.358;2022-10-28T16:35:22;19.73;75.79
72277;SHT30;61204;49.980;8.358;2022-10-28T16:37:49;19.59;76.76
72277;SHT30;61204;49.980;8.358;2022-10-28T16:40:16;19.50;77.24
72277;SHT30;61204;49.980;8.358;2022-10-28T16:42:43;19.47;76.95
72277;SHT30;61204;49.980;8.358;2022-10-28T16:45:16;19.38;77.14
72277;SHT30;61204;49.980;8.358;2022-10-28T16:47:44;19.30;77.55
72277;SHT30;61204;49.980;8.358;2022-10-28T16:50:09;19.24;78.04
72277;SHT30;61204;49.980;8.358;2022-10-28T16:52:36;19.17;78.19
72277;SHT30;61204;49.980;8.358;2022-10-28T16:55:02;19.04;78.88
72277;SHT30;61204;49.980;8.358;2022-10-28T16:57:30;18.97;78.33
72277;SHT30;61204;49.980;8.358;2022-10-28T16:59:56;18.89;79.19
72277;SHT30;61204;49.980;8.358;2022-10-28T17:02:27;18.73;79.25
72277;SHT30;61204;49.980;8.358;2022-10-28T17:04:56;18.68;79.54
72277;SHT30;61204;49.980;8.358;2022-10-28T17:07:24;18.61;80.03
72277;SHT30;61204;49.980;8.358;2022-10-28T17:09:50;18.58;80.30
72277;SHT30;61204;49.980;8.358;2022-10-28T17:12:23;18.51;80.52
72277;SHT30;61204;49.980;8.358;2022-10-28T17:14:51;18.47;80.67
72277;SHT30;61204;49.980;8.358;2022-10-28T17:17:17;18.42;81.37
72277;SHT30;61204;49.980;8.358;2022-10-28T17:19:43;18.23;82.33
72277;SHT30;61204;49.980;8.358;2022-10-28T17:22:11;18.17;82.69
72277;SHT30;61204;49.980;8.358;2022-10-28T17:24:37;18.14;82.21
72277;SHT30;61204;49.980;8.358;2022-10-28T17:27:05;18.06;81.76
72277;SHT30;61204;49.980;8.358;2022-10-28T17:29:31;17.94;81.74
72277;SHT30;61204;49.980;8.358;2022-10-28T17:31:57;17.80;82.32
72277;SHT30;61204;49.980;8.358;2022-10-28T17:34:22;17.72;82.85
72277;SHT30;61204;49.980;8.358;2022-10-28T17:36:48;17.69;83.48
72277;SHT30;61204;49.980;8.358;2022-10-28T17:39:13;17.65;83.99
72277;SHT30;61204;49.980;8.358;2022-10-28T17:41:42;17.59;84.04
72277;SHT30;61204;49.980;8.358;2022-10-28T17:44:08;17.58;84.68
72277;SHT30;61204;49.980;8.358;2022-10-28T17:46:33;17.55;84.64
72277;SHT30;61204;49.980;8.358;2022-10-28T17:48:59;17.55;85.44
72277;SHT30;61204;49.980;8.358;2022-10-28T17:51:25;17.54;85.26
72277;SHT30;61204;49.980;8.358;2022-10-28T17:53:54;17.42;85.78
72277;SHT30;61204;49.980;8.358;2022-10-28T17:56:20;17.34;85.83
72277;SHT30;61204;49.980;8.358;2022-10-28T17:58:46;17.17;86.52
72277;SHT30;61204;49.980;8.358;2022-10-28T18:01:12;17.06;86.78
72277;SHT30;61204;49.980;8.358;2022-10-28T18:03:37;17.00;87.01
72277;SHT30;61204;49.980;8.358;2022-10-28T18:06:11;16.97;86.63
72277;SHT30;61204;49.980;8.358;2022-10-28T18:08:39;16.99;86.78
72277;SHT30;61204;49.980;8.358;2022-10-28T18:11:09;16.90;87.64
72277;SHT30;61204;49.980;8.358;2022-10-28T18:13:40;16.76;88.54
72277;SHT30;61204;49.980;8.358;2022-10-28T18:16:22;16.63;88.92
72277;SHT30;61204;49.980;8.358;2022-10-28T18:18:51;16.66;89.30
72277;SHT30;61204;49.980;8.358;2022-10-28T18:21:19;16.66;88.89
72277;SHT30;61204;49.980;8.358;2022-10-28T18:23:50;16.61;88.52
72277;SHT30;61204;49.980;8.358;2022-10-28T18:26:17;16.59;89.06
72277;SHT30;61204;49.980;8.358;2022-10-28T18:28:44;16.61;88.97
72277;SHT30;61204;49.980;8.358;2022-10-28T18:31:18;16.58;88.84
72277;SHT30;61204;49.980;8.358;2022-10-28T18:33:45;16.59;88.86
72277;SHT30;61204;49.980;8.358;2022-10-28T18:36:17;16.58;88.99
72277;SHT30;61204;49.980;8.358;2022-10-28T18:38:45;16.55;89.16
72277;SHT30;61204;49.980;8.358;2022-10-28T18:41:19;16.56;89.30
72277;SHT30;61204;49.980;8.358;2022-10-28T18:43:47;16.52;89.22
72277;SHT30;61204;49.980;8.358;2022-10-28T18:46:16;16.55;89.01
72277;SHT30;61204;49.980;8.358;2022-10-28T18:48:42;16.56;89.25
72277;SHT30;61204;49.980;8.358;2022-10-28T18:51:10;16.58;89.37
72277;SHT30;61204;49.980;8.358;2022-10-28T18:53:43;16.58;89.54
72277;SHT30;61204;49.980;8.358;2022-10-28T18:56:19;16.40;88.55
72277;SHT30;61204;49.980;8.358;2022-10-28T18:58:46;16.27;90.30
72277;SHT30;61204;49.980;8.358;2022-10-28T19:01:26;16.21;91.02
72277;SHT30;61204;49.980;8.358;2022-10-28T19:03:55;16.24;91.23
72277;SHT30;61204;49.980;8.358;2022-10-28T19:06:23;16.22;91.31
72277;SHT30;61204;49.980;8.358;2022-10-28T19:08:54;16.22;91.05
72277;SHT30;61204;49.980;8.358;2022-10-28T19:11:23;16.22;90.96
72277;SHT30;61204;49.980;8.358;2022-10-28T19:13:57;16.21;90.83
72277;SHT30;61204;49.980;8.358;2022-10-28T19:16:26;16.18;90.70